Rome, Wisconsin
Current Conditions -  °F | °C
As of 5:54 PM on Friday 24 Oct 2014 (Local Time) from KISW Reporting Station
Overcast Overcast  
Wind Chill: 58°   Ceiling: 2800
Heat Index: 58°   Visibility: 10mi
Dew Point: 50°   Wind: 5mph
Humidity: 75%   Direction: 180°S
Pressure: 29.9"   Gusts: NA
Location:  44.252°N, 89.9853°W
Report Text: KISW 242254Z AUTO 18004KT 10SM OVC028 14/10 A2990 RMK AO2 SLP129 T01440100
Loading
Personal Weather Stations






























Interactive Weather Map
Tropical Storm Tracking
New forecast layout! Learn more

10-Day Weather Forecast

Advertisements
Track Severe Weather on mobile